Time;durP1;ratioP1;P1;durP2;ratioP2;P2;SDS_P1;SDS_P2;PMS_P1;PMS_P2;Temp;Humidity;BMP_temperature;BMP_pressure;BME280_temperature;BME280_humidity;BME280_pressure;Samples;Min_cycle;Max_cycle;Signal;HPM_P1;HPM_P2
2021/05/18 00:00:02;;;;;;;6.22;2.25;;;18.50;95.50;;;;;;5033395;28;20029;-67
2021/05/18 00:02:28;;;;;;;5.90;2.08;;;18.50;95.50;;;;;;5033184;28;20021;-68
2021/05/18 00:04:53;;;;;;;5.05;2.10;;;18.50;95.50;;;;;;5033070;28;20055;-68
2021/05/18 00:07:22;;;;;;;5.88;2.40;;;18.50;95.50;;;;;;5032424;28;20488;-69
2021/05/18 00:12:34;;;;;;;6.70;1.98;;;18.40;95.50;;;;;;5032870;28;20099;-69
2021/05/18 00:15:01;;;;;;;6.43;2.00;;;18.40;95.50;;;;;;5032899;28;20042;-68
2021/05/18 00:17:28;;;;;;;6.72;2.17;;;18.40;95.60;;;;;;5032642;28;20116;-69
2021/05/18 00:19:54;;;;;;;4.95;1.95;;;18.40;95.60;;;;;;5032724;28;20037;-68
2021/05/18 00:22:20;;;;;;;6.30;2.30;;;18.40;95.50;;;;;;5032655;28;20021;-69
2021/05/18 00:24:46;;;;;;;8.25;2.17;;;18.40;95.50;;;;;;5031656;28;20020;-67
2021/05/18 00:27:11;;;;;;;6.28;2.00;;;18.40;95.50;;;;;;5032734;28;20025;-66
2021/05/18 00:29:37;;;;;;;7.38;1.90;;;18.40;95.40;;;;;;5033127;28;20093;-66
2021/05/18 00:32:03;;;;;;;6.10;2.17;;;18.40;95.40;;;;;;5033032;28;20029;-69
2021/05/18 00:34:29;;;;;;;6.45;1.90;;;18.40;95.50;;;;;;5032622;28;20038;-68
2021/05/18 00:36:54;;;;;;;6.78;1.98;;;18.40;95.50;;;;;;5032140;28;20147;-68
2021/05/18 00:39:20;;;;;;;6.50;2.17;;;18.40;95.50;;;;;;5047776;28;20378;-68
2021/05/18 00:41:47;;;;;;;5.18;1.80;;;18.30;95.50;;;;;;5031182;28;20040;-68
2021/05/18 00:44:13;;;;;;;9.68;2.58;;;18.30;95.60;;;;;;5032753;28;20108;-66
2021/05/18 00:46:39;;;;;;;9.45;2.30;;;18.30;95.50;;;;;;5032145;28;20141;-66
2021/05/18 00:49:06;;;;;;;6.45;2.00;;;18.30;95.60;;;;;;5032435;28;20047;-66
2021/05/18 00:51:32;;;;;;;6.82;1.80;;;18.30;95.60;;;;;;5031960;28;20445;-66
2021/05/18 00:54:00;;;;;;;9.60;2.28;;;18.30;95.60;;;;;;5031031;28;20037;-66
2021/05/18 00:59:05;;;;;;;10.60;2.38;;;18.20;95.50;;;;;;5032364;28;20068;-66
2021/05/18 01:01:32;;;;;;;6.40;2.40;;;18.20;95.60;;;;;;5032166;28;20036;-69
2021/05/18 01:03:59;;;;;;;6.60;2.38;;;18.20;95.60;;;;;;5032056;28;20039;-68
2021/05/18 01:08:57;;;;;;;8.23;2.10;;;18.20;95.60;;;;;;5031980;28;20037;-66
2021/05/18 01:11:25;;;;;;;9.43;2.55;;;18.20;95.60;;;;;;5020045;28;20113;-68
2021/05/18 01:13:56;;;;;;;6.78;2.25;;;18.20;95.60;;;;;;5032025;28;21964;-69
2021/05/18 01:16:23;;;;;;;7.25;2.42;;;18.20;95.60;;;;;;5032279;28;20108;-69
2021/05/18 01:18:49;;;;;;;6.70;2.10;;;18.10;95.60;;;;;;5031808;28;20477;-69
2021/05/18 01:21:15;;;;;;;8.52;2.47;;;18.10;95.60;;;;;;5031416;28;20030;-66
2021/05/18 01:23:41;;;;;;;8.90;2.40;;;18.20;95.70;;;;;;5031430;28;20442;-68
2021/05/18 01:26:08;;;;;;;8.98;2.35;;;18.10;95.60;;;;;;5031119;28;20108;-69
2021/05/18 01:28:34;;;;;;;8.52;2.25;;;18.10;95.70;;;;;;5031573;28;20022;-69
2021/05/18 01:31:01;;;;;;;5.95;2.00;;;18.10;95.70;;;;;;5031677;28;20474;-69
2021/05/18 01:33:27;;;;;;;8.25;2.33;;;18.10;95.70;;;;;;5031754;28;20032;-68
2021/05/18 01:35:55;;;;;;;6.22;2.08;;;18.00;95.70;;;;;;5031425;28;20049;-69
2021/05/18 01:38:29;;;;;;;8.68;2.60;;;18.00;95.70;;;;;;5031778;28;20060;-69
2021/05/18 01:43:39;;;;;;;;;;;18.00;95.70;;;;;;5032582;28;20032;-68
2021/05/18 01:46:05;;;;;;;9.60;2.60;;;18.00;95.70;;;;;;5030973;28;19905;-67
2021/05/18 01:48:35;;;;;;;7.85;2.15;;;18.00;95.80;;;;;;5046873;28;20036;-70
2021/05/18 01:51:00;;;;;;;6.65;2.17;;;18.00;95.80;;;;;;5031137;28;20072;-69
2021/05/18 01:53:26;;;;;;;6.97;2.10;;;18.00;95.80;;;;;;5031235;28;20067;-69
2021/05/18 01:58:20;;;;;;;7.70;2.35;;;17.90;95.80;;;;;;5030784;28;20466;-69
2021/05/18 02:00:47;;;;;;;8.80;2.30;;;17.90;95.80;;;;;;5031591;28;20044;-69
2021/05/18 02:03:12;;;;;;;7.13;1.90;;;17.90;95.70;;;;;;5031598;28;20021;-69
2021/05/18 02:05:40;;;;;;;6.13;2.00;;;17.90;95.70;;;;;;5031573;28;20075;-68
2021/05/18 02:08:09;;;;;;;7.72;2.38;;;17.90;95.80;;;;;;5031336;28;20093;-68
2021/05/18 02:10:34;;;;;;;6.72;1.90;;;17.90;95.70;;;;;;5031291;28;20545;-68
2021/05/18 02:13:00;;;;;;;6.60;2.20;;;17.90;95.80;;;;;;5031546;28;20109;-68
2021/05/18 02:16:12;;;;;;;8.48;2.50;;;17.90;95.70;;;;;;5031110;28;20040;-69
2021/05/18 02:26:19;;;;;;;6.20;1.75;;;18.00;95.60;;;;;;5031066;28;20152;-67
2021/05/18 02:28:45;;;;;;;5.45;1.77;;;18.00;95.60;;;;;;5031725;28;20398;-69
2021/05/18 02:31:11;;;;;;;5.25;1.92;;;18.00;95.50;;;;;;5030929;28;20040;-69
2021/05/18 02:33:38;;;;;;;6.78;2.10;;;18.00;95.60;;;;;;5029858;28;20033;-67
2021/05/18 02:36:04;;;;;;;5.53;1.77;;;18.00;95.60;;;;;;5032043;28;20040;-68
2021/05/18 02:38:30;;;;;;;4.97;1.63;;;18.00;95.50;;;;;;5035493;28;20030;-68
2021/05/18 02:40:56;;;;;;;5.38;1.80;;;18.00;95.50;;;;;;5034326;28;20075;-68
2021/05/18 02:43:29;;;;;;;4.97;1.95;;;18.00;95.60;;;;;;5034931;28;20097;-68
2021/05/18 02:51:05;;;;;;;6.75;2.08;;;18.00;95.50;;;;;;5033666;28;20033;-69
2021/05/18 02:53:30;;;;;;;6.30;1.77;;;18.00;95.50;;;;;;5034187;28;20038;-69
2021/05/18 02:56:07;;;;;;;6.20;1.88;;;18.00;95.60;;;;;;5033928;28;20143;-69
2021/05/18 02:58:34;;;;;;;6.28;2.10;;;18.00;95.60;;;;;;5034420;28;20052;-69
2021/05/18 03:01:00;;;;;;;5.35;1.80;;;17.90;95.50;;;;;;5034248;28;20029;-69
2021/05/18 03:03:26;;;;;;;6.22;2.13;;;17.90;95.50;;;;;;5034270;28;20033;-68
2021/05/18 03:05:51;;;;;;;4.65;2.00;;;17.90;95.50;;;;;;5034238;28;20358;-68
2021/05/18 03:08:19;;;;;;;6.43;2.17;;;17.90;95.50;;;;;;5034789;28;20029;-66
2021/05/18 03:10:44;;;;;;;3.97;1.50;;;17.90;95.50;;;;;;5034133;28;20084;-66
2021/05/18 03:13:11;;;;;;;5.78;1.85;;;17.90;95.90;;;;;;5034457;28;20513;-68
2021/05/18 03:15:37;;;;;;;5.97;1.90;;;17.90;95.50;;;;;;5034274;28;20029;-70
2021/05/18 03:18:03;;;;;;;4.57;1.98;;;17.90;95.50;;;;;;5034013;28;20393;-66
2021/05/18 03:20:29;;;;;;;4.78;1.70;;;17.90;95.50;;;;;;5033159;28;20432;-66
2021/05/18 03:22:55;;;;;;;4.40;1.70;;;17.90;95.60;;;;;;5033626;28;20393;-69
2021/05/18 03:25:21;;;;;;;6.38;2.05;;;17.90;95.50;;;;;;5033513;28;20477;-70
2021/05/18 03:27:47;;;;;;;4.68;1.50;;;17.90;95.50;;;;;;5034404;28;20018;-69
2021/05/18 03:35:37;;;;;;;4.68;1.90;;;17.90;95.60;;;;;;5033508;28;20500;-70
2021/05/18 03:38:13;;;;;;;5.60;1.85;;;17.90;95.50;;;;;;5033719;28;20045;-68
2021/05/18 03:40:39;;;;;;;4.38;2.10;;;17.90;95.60;;;;;;5033603;28;20029;-70
2021/05/18 03:43:12;;;;;;;4.75;1.73;;;17.90;95.50;;;;;;5033923;28;20355;-70
2021/05/18 03:45:43;;;;;;;4.88;2.00;;;17.90;95.50;;;;;;5033753;28;20473;-70
2021/05/18 03:53:44;;;;;;;3.57;1.70;;;17.80;95.50;;;;;;5033456;28;20319;-69
2021/05/18 04:02:39;;;;;;;3.97;1.60;;;17.80;95.50;;;;;;5033759;28;20143;-69
2021/05/18 04:04:36;;;;;;;5.72;1.95;;;17.80;95.60;;;;;;5013733;28;20040;-70
2021/05/18 04:18:12;;;;;;;6.75;2.00;;;17.80;95.60;;;;;;5033437;28;20041;-70
2021/05/18 04:23:31;;;;;;;5.22;1.92;;;17.70;95.60;;;;;;5032739;28;20022;-68
2021/05/18 05:01:16;;;;;;;;;;;17.80;95.40;;;;;;5031876;28;20048;-69
2021/05/18 05:03:54;;;;;;;3.45;1.50;;;17.80;95.40;;;;;;5032470;28;19995;-69
2021/05/18 05:06:36;;;;;;;4.78;1.73;;;17.80;95.40;;;;;;5047696;28;20049;-70
2021/05/18 05:12:31;;;;;;;3.92;1.70;;;17.80;95.40;;;;;;5031478;28;20022;-70
2021/05/18 05:14:17;;;;;;;5.07;1.90;;;17.80;95.40;;;;;;5031971;28;20112;-69
2021/05/18 05:16:43;;;;;;;4.82;1.83;;;17.70;95.40;;;;;;5032154;28;20033;-69
2021/05/18 05:19:09;;;;;;;5.28;1.80;;;17.80;95.40;;;;;;5031611;28;20548;-69
2021/05/18 05:21:34;;;;;;;4.68;1.80;;;17.80;95.40;;;;;;5031339;28;20029;-69
2021/05/18 05:24:00;;;;;;;4.85;1.70;;;17.80;95.30;;;;;;5031861;28;20021;-69
2021/05/18 05:26:29;;;;;;;3.95;1.48;;;17.80;95.30;;;;;;5031766;28;20053;-70
2021/05/18 05:28:55;;;;;;;4.63;1.65;;;17.90;95.20;;;;;;5032250;28;20093;-70
2021/05/18 05:31:20;;;;;;;5.78;1.77;;;17.90;95.20;;;;;;5031129;28;20112;-69
2021/05/18 05:33:46;;;;;;;3.15;1.45;;;18.00;95.10;;;;;;5031805;28;20057;-70
2021/05/18 05:36:11;;;;;;;4.25;1.52;;;18.00;95.10;;;;;;5031707;28;20458;-70
2021/05/18 05:38:38;;;;;;;4.22;1.77;;;18.00;95.00;;;;;;5031747;28;20033;-68
2021/05/18 05:41:04;;;;;;;4.88;1.50;;;18.00;95.10;;;;;;5031535;28;20485;-65
2021/05/18 05:43:30;;;;;;;5.32;1.70;;;18.00;95.00;;;;;;5031649;28;20034;-68
2021/05/18 05:45:56;;;;;;;4.60;1.60;;;18.00;95.00;;;;;;5032225;28;20017;-66
2021/05/18 05:48:21;;;;;;;4.32;1.67;;;18.00;95.00;;;;;;5031573;28;20488;-69
2021/05/18 05:50:48;;;;;;;5.38;1.92;;;18.00;95.00;;;;;;5030770;28;20486;-68
2021/05/18 05:53:14;;;;;;;4.82;1.52;;;18.00;95.00;;;;;;5030590;28;20121;-70
2021/05/18 05:55:40;;;;;;;4.25;1.40;;;18.10;95.00;;;;;;5031467;28;20064;-69
2021/05/18 05:58:05;;;;;;;4.65;1.63;;;18.10;95.00;;;;;;5031326;28;20466;-69
2021/05/18 06:00:31;;;;;;;4.35;1.65;;;18.10;95.00;;;;;;5030851;28;20482;-70
2021/05/18 06:02:57;;;;;;;3.95;1.80;;;18.10;95.00;;;;;;5031702;28;20029;-72
2021/05/18 06:05:23;;;;;;;3.97;1.60;;;18.10;95.00;;;;;;5031428;28;20025;-73
2021/05/18 06:07:48;;;;;;;4.35;1.52;;;18.10;95.20;;;;;;5030994;28;20040;-73
2021/05/18 06:16:00;;;;;;;4.72;1.77;;;18.10;95.60;;;;;;5035548;28;20033;-69
2021/05/18 06:48:06;;;;;;;4.13;1.40;;;18.10;95.90;;;;;;5034622;28;20039;-70
2021/05/18 06:50:33;;;;;;;5.22;1.45;;;18.10;95.80;;;;;;5034877;28;20112;-69
2021/05/18 06:52:59;;;;;;;4.40;1.50;;;18.10;95.80;;;;;;5034577;28;20022;-69
2021/05/18 06:55:36;;;;;;;5.40;1.75;;;18.20;95.80;;;;;;5034667;28;20034;-68
2021/05/18 06:58:10;;;;;;;4.28;1.30;;;18.20;95.60;;;;;;5035056;28;20026;-68
2021/05/18 07:00:37;;;;;;;3.70;1.30;;;18.20;95.50;;;;;;5034929;28;20028;-71
2021/05/18 07:03:07;;;;;;;5.60;1.38;;;18.30;95.40;;;;;;5034859;28;20100;-69
2021/05/18 07:08:20;;;;;;;4.97;1.42;;;18.40;95.40;;;;;;5035112;28;20022;-71
2021/05/18 07:10:47;;;;;;;5.05;1.23;;;18.50;95.30;;;;;;5033984;28;20075;-70
2021/05/18 07:13:15;;;;;;;4.18;1.20;;;18.60;95.40;;;;;;5031571;28;20021;-68
2021/05/18 07:15:40;;;;;;;4.65;1.17;;;18.60;95.30;;;;;;5033662;28;20041;-68
2021/05/18 07:18:07;;;;;;;4.65;1.00;;;18.60;95.30;;;;;;5033903;28;20032;-69
2021/05/18 07:20:32;;;;;;;2.38;1.00;;;18.70;95.30;;;;;;5034526;28;20422;-70
2021/05/18 07:23:02;;;;;;;3.42;1.20;;;18.80;95.60;;;;;;5032979;28;20128;-71
2021/05/18 07:25:27;;;;;;;2.90;0.98;;;19.40;95.20;;;;;;5031735;28;20123;-69
2021/05/18 07:27:53;;;;;;;3.42;1.00;;;19.50;94.70;;;;;;5033018;28;20113;-70
2021/05/18 07:30:19;;;;;;;1.98;1.05;;;19.90;94.60;;;;;;5034133;28;20021;-72
2021/05/18 07:32:45;;;;;;;1.70;0.60;;;20.20;93.90;;;;;;5033944;28;20055;-69
2021/05/18 07:35:11;;;;;;;1.92;0.55;;;20.40;94.40;;;;;;5032984;28;20511;-70
2021/05/18 07:37:38;;;;;;;1.98;0.63;;;20.50;93.70;;;;;;5033551;28;20389;-71
2021/05/18 07:40:05;;;;;;;3.42;0.60;;;20.50;93.60;;;;;;5033554;28;20065;-70
2021/05/18 07:42:31;;;;;;;2.13;0.60;;;20.50;93.80;;;;;;5033444;28;20022;-72
2021/05/18 07:44:56;;;;;;;1.38;0.40;;;20.90;93.60;;;;;;5013996;28;20489;-72
2021/05/18 07:47:26;;;;;;;3.03;0.60;;;21.00;93.20;;;;;;5018455;28;20025;-72
2021/05/18 07:49:57;;;;;;;1.00;0.50;;;20.90;93.10;;;;;;5032988;28;20036;-72
2021/05/18 08:00:42;;;;;;;1.15;0.40;;;21.40;92.70;;;;;;5033949;28;20125;-74
2021/05/18 08:06:02;;;;;;;2.28;0.52;;;21.40;92.90;;;;;;5031823;28;20082;-74
2021/05/18 08:08:28;;;;;;;2.08;0.30;;;21.40;93.10;;;;;;5033550;28;20156;-73
2021/05/18 08:10:59;;;;;;;0.47;0.30;;;21.50;93.20;;;;;;5033334;28;20075;-71
2021/05/18 08:13:24;;;;;;;0.50;0.30;;;21.50;93.20;;;;;;5033334;28;20031;-69
2021/05/18 10:37:40;;;;;;;0.50;0.30;;;22.30;92.20;;;;;;5035257;28;20033;-70
2021/05/18 10:40:34;;;;;;;1.02;0.30;;;22.40;92.00;;;;;;5033234;28;20022;-72
2021/05/18 10:43:11;;;;;;;1.38;0.60;;;22.50;92.00;;;;;;5034652;28;20040;-70
2021/05/18 10:46:10;;;;;;;2.05;0.50;;;22.60;91.50;;;;;;5034757;28;20420;-70
2021/05/18 10:48:39;;;;;;;1.08;0.40;;;22.90;91.40;;;;;;5033425;28;20036;-70
2021/05/18 10:51:25;;;;;;;1.13;0.40;;;22.60;91.20;;;;;;5034688;28;20061;-71
2021/05/18 10:54:25;;;;;;;0.88;0.50;;;22.90;91.30;;;;;;5034831;28;20013;-70
2021/05/18 10:56:57;;;;;;;2.05;0.50;;;23.20;90.70;;;;;;5034136;28;20124;-71
2021/05/18 10:59:33;;;;;;;1.75;0.70;;;22.80;91.00;;;;;;5034550;28;20462;-70
2021/05/18 11:02:01;;;;;;;1.23;0.50;;;22.70;91.40;;;;;;5034066;28;20036;-70
2021/05/18 11:04:29;;;;;;;2.33;0.60;;;22.70;91.40;;;;;;5034355;28;20104;-71
2021/05/18 11:06:57;;;;;;;0.90;0.50;;;22.70;91.40;;;;;;5034504;28;20026;-71
2021/05/18 11:09:23;;;;;;;1.52;0.52;;;22.80;91.30;;;;;;5034521;28;20079;-71
2021/05/18 11:11:59;;;;;;;1.02;0.40;;;22.80;91.30;;;;;;5034569;28;20140;-71
2021/05/18 11:14:42;;;;;;;1.00;0.40;;;22.80;91.30;;;;;;5034375;28;20021;-70
2021/05/18 11:17:09;;;;;;;2.22;0.40;;;22.80;91.40;;;;;;5034618;28;20079;-70
2021/05/18 11:19:46;;;;;;;1.50;0.40;;;22.90;91.30;;;;;;5034301;28;20037;-71
2021/05/18 11:22:11;;;;;;;1.77;0.55;;;23.00;91.30;;;;;;5034397;28;20025;-71
2021/05/18 11:24:50;;;;;;;1.00;0.30;;;22.80;91.40;;;;;;5034214;28;20029;-71
2021/05/18 11:27:29;;;;;;;1.10;0.40;;;22.90;91.60;;;;;;5034671;28;20087;-72
2021/05/18 11:29:54;;;;;;;0.70;0.25;;;22.80;91.30;;;;;;5034074;28;20473;-72
2021/05/18 11:32:20;;;;;;;0.85;0.30;;;22.80;91.40;;;;;;5034047;28;20052;-72
2021/05/18 11:34:55;;;;;;;0.73;0.25;;;22.70;91.50;;;;;;5034263;28;20550;-70
2021/05/18 11:37:21;;;;;;;2.92;0.30;;;22.80;91.50;;;;;;5033804;28;20026;-71
2021/05/18 11:39:46;;;;;;;0.95;0.30;;;23.10;91.50;;;;;;5032470;28;20374;-75
2021/05/18 11:42:27;;;;;;;1.10;0.32;;;22.90;91.40;;;;;;5033812;28;20021;-71
2021/05/18 11:45:14;;;;;;;1.17;0.50;;;22.90;91.40;;;;;;5033981;28;20022;-69
2021/05/18 11:47:41;;;;;;;1.42;0.50;;;22.90;91.50;;;;;;5033719;28;20397;-68
2021/05/18 11:50:17;;;;;;;1.15;0.50;;;22.90;91.60;;;;;;5033531;28;20033;-69
2021/05/18 11:52:42;;;;;;;0.98;0.47;;;22.80;91.50;;;;;;5034250;28;20029;-70
2021/05/18 11:55:20;;;;;;;3.42;0.68;;;22.80;91.90;;;;;;5033524;28;20409;-70
2021/05/18 11:57:46;;;;;;;2.42;0.50;;;22.80;91.50;;;;;;5034009;28;20056;-70
2021/05/18 12:00:36;;;;;;;2.88;0.70;;;22.80;91.50;;;;;;5033494;28;20029;-70
2021/05/18 12:03:10;;;;;;;1.27;0.60;;;22.70;91.60;;;;;;5033467;28;20053;-70
2021/05/18 12:05:55;;;;;;;1.73;0.60;;;22.70;91.70;;;;;;5033703;28;20100;-70
2021/05/18 12:08:29;;;;;;;3.28;0.98;;;22.60;91.70;;;;;;5032528;28;20028;-70
2021/05/18 12:10:55;;;;;;;1.88;0.73;;;22.60;91.80;;;;;;5033011;28;20390;-71
2021/05/18 12:13:29;;;;;;;6.20;0.75;;;22.60;91.90;;;;;;5031405;28;20037;-69
2021/05/18 12:16:06;;;;;;;1.30;0.52;;;23.00;91.80;;;;;;5031262;28;20124;-67
2021/05/18 12:18:33;;;;;;;1.48;0.40;;;23.10;91.70;;;;;;5033174;28;20025;-67
2021/05/18 12:21:07;;;;;;;2.55;0.50;;;23.40;91.50;;;;;;5033168;28;20022;-69
2021/05/18 12:23:34;;;;;;;1.45;0.30;;;23.50;91.20;;;;;;5032934;28;20029;-68
2021/05/18 12:26:18;;;;;;;1.05;0.38;;;23.50;91.30;;;;;;5033008;28;20378;-68
2021/05/18 12:29:02;;;;;;;0.38;0.30;;;23.40;91.40;;;;;;5031541;28;20087;-69
2021/05/18 12:31:38;;;;;;;1.15;0.40;;;23.40;91.50;;;;;;5033048;28;20017;-68
2021/05/18 12:34:06;;;;;;;0.90;0.40;;;23.40;91.60;;;;;;5031689;28;20041;-69
2021/05/18 12:36:45;;;;;;;0.85;0.40;;;23.40;91.60;;;;;;5032279;28;20116;-68
2021/05/18 12:39:16;;;;;;;0.88;0.40;;;23.30;91.80;;;;;;5032914;28;20485;-68
2021/05/18 12:42:03;;;;;;;0.35;0.30;;;23.30;91.80;;;;;;5032473;28;20037;-68
2021/05/18 12:44:49;;;;;;;0.30;0.17;;;23.20;92.00;;;;;;5032715;28;20370;-70
2021/05/18 12:47:28;;;;;;;1.20;0.38;;;23.20;92.10;;;;;;5032651;28;20029;-68
2021/05/18 12:49:55;;;;;;;0.88;0.30;;;23.20;92.10;;;;;;5032679;28;20037;-69
2021/05/18 12:52:20;;;;;;;1.17;0.30;;;23.20;92.10;;;;;;5032801;28;20026;-68
2021/05/18 12:54:54;;;;;;;0.30;0.20;;;23.20;92.10;;;;;;5032601;28;20045;-68
2021/05/18 12:57:23;;;;;;;0.30;0.20;;;23.20;92.20;;;;;;5015280;28;20040;-68
2021/05/18 13:00:01;;;;;;;1.30;0.20;;;23.10;92.10;;;;;;5032390;28;20108;-68
2021/05/18 13:02:42;;;;;;;0.40;0.30;;;23.00;92.40;;;;;;5032720;28;20405;-68
2021/05/18 13:05:10;;;;;;;1.70;0.20;;;23.00;92.50;;;;;;5032511;28;20029;-71
2021/05/18 13:07:37;;;;;;;0.20;0.15;;;23.00;92.50;;;;;;5031968;28;20022;-68
2021/05/18 13:10:26;;;;;;;1.88;0.20;;;23.00;92.50;;;;;;5031134;28;20496;-70
2021/05/18 13:13:01;;;;;;;0.45;0.30;;;23.00;92.60;;;;;;5019724;28;20034;-70
2021/05/18 13:15:27;;;;;;;0.80;0.28;;;22.90;92.50;;;;;;5032490;28;20037;-68
2021/05/18 13:17:57;;;;;;;0.55;0.30;;;22.90;92.70;;;;;;5032224;28;20444;-69
2021/05/18 13:20:24;;;;;;;0.35;0.30;;;22.90;92.80;;;;;;5031602;28;20060;-70
2021/05/18 13:22:58;;;;;;;0.47;0.30;;;22.80;92.80;;;;;;5032145;28;20470;-70
2021/05/18 13:28:08;;;;;;;0.80;0.28;;;22.80;92.90;;;;;;5032043;28;20032;-70
2021/05/18 13:30:35;;;;;;;0.30;0.20;;;22.80;93.00;;;;;;5031485;28;20112;-67
2021/05/18 13:33:01;;;;;;;0.77;0.20;;;22.80;93.00;;;;;;5031736;28;20372;-69
2021/05/18 13:35:29;;;;;;;0.40;0.22;;;22.80;93.00;;;;;;5031491;28;20037;-66
2021/05/18 13:37:56;;;;;;;1.05;0.30;;;22.80;92.90;;;;;;5031740;28;20473;-68
2021/05/18 13:40:24;;;;;;;0.95;0.20;;;22.80;93.20;;;;;;5032262;28;20029;-67
2021/05/18 13:42:52;;;;;;;1.73;0.20;;;22.80;93.10;;;;;;5032043;28;20485;-68
2021/05/18 13:45:19;;;;;;;1.42;0.25;;;22.70;93.20;;;;;;5031913;28;20029;-69
2021/05/18 13:47:45;;;;;;;0.45;0.10;;;22.70;93.10;;;;;;5032073;28;20026;-65
2021/05/18 13:50:11;;;;;;;0.55;0.20;;;22.70;93.30;;;;;;5031491;28;20505;-66
2021/05/18 13:52:36;;;;;;;0.35;0.20;;;22.70;93.30;;;;;;5031943;28;20033;-66
2021/05/18 13:55:02;;;;;;;1.08;0.20;;;22.70;93.20;;;;;;5031712;28;20037;-66
2021/05/18 13:57:28;;;;;;;1.33;0.20;;;22.70;93.30;;;;;;5031352;28;20370;-66
2021/05/18 13:59:55;;;;;;;0.20;0.20;;;22.70;93.40;;;;;;5031514;28;20041;-66
2021/05/18 14:02:21;;;;;;;0.30;0.20;;;22.70;93.60;;;;;;5031663;28;20499;-65
2021/05/18 14:04:46;;;;;;;0.47;0.10;;;22.70;93.40;;;;;;5031710;28;20049;-65
2021/05/18 14:08:13;;;;;;;0.63;0.20;;;22.80;93.30;;;;;;5031551;28;20037;-66
2021/05/18 14:10:39;;;;;;;1.00;0.20;;;22.70;93.30;;;;;;5028671;28;20115;-65
2021/05/18 14:13:05;;;;;;;0.45;0.20;;;22.80;93.30;;;;;;5031560;28;20076;-68
2021/05/18 14:15:30;;;;;;;0.40;0.13;;;22.80;93.30;;;;;;5030863;28;20029;-67
2021/05/18 14:17:56;;;;;;;1.17;0.20;;;22.80;93.30;;;;;;5031284;28;20029;-66
2021/05/18 14:20:22;;;;;;;0.13;0.10;;;22.80;93.30;;;;;;5031425;28;20029;-66
2021/05/18 14:22:47;;;;;;;0.85;0.30;;;22.80;93.40;;;;;;5031321;28;20406;-68
2021/05/18 14:25:13;;;;;;;0.55;0.20;;;22.80;93.30;;;;;;5031090;28;20100;-68
2021/05/18 14:27:41;;;;;;;0.20;0.17;;;22.80;93.20;;;;;;5031665;28;20385;-69
2021/05/18 14:30:10;;;;;;;0.40;0.20;;;22.80;93.20;;;;;;5031677;28;20127;-67
2021/05/18 14:32:37;;;;;;;0.55;0.20;;;22.80;93.30;;;;;;5033242;28;20029;-66
2021/05/18 14:35:07;;;;;;;0.32;0.20;;;22.80;93.40;;;;;;5034316;28;20037;-67
2021/05/18 14:37:33;;;;;;;0.55;0.10;;;22.80;93.40;;;;;;5034636;28;20026;-67
2021/05/18 14:45:35;;;;;;;0.52;0.20;;;22.80;93.50;;;;;;5032983;28;20053;-69
2021/05/18 14:55:55;;;;;;;;;;;22.80;93.50;;;;;;5035473;28;20095;-69
2021/05/18 14:58:21;;;;;;;0.77;0.20;;;22.80;93.50;;;;;;5034973;28;19909;-67
2021/05/18 15:00:47;;;;;;;0.28;0.17;;;22.80;93.50;;;;;;5034582;28;20030;-66
2021/05/18 15:03:13;;;;;;;0.95;0.30;;;22.80;93.40;;;;;;5034600;28;20034;-71
2021/05/18 15:05:39;;;;;;;0.30;0.20;;;22.90;93.60;;;;;;5034590;28;20021;-71
2021/05/18 15:08:06;;;;;;;2.30;0.30;;;22.90;93.40;;;;;;5034144;28;20076;-69
2021/05/18 15:10:32;;;;;;;0.40;0.20;;;23.00;93.30;;;;;;5033886;28;20505;-70
2021/05/18 15:12:58;;;;;;;0.95;0.25;;;23.00;93.40;;;;;;5034402;28;20034;-67
2021/05/18 15:15:25;;;;;;;0.20;0.20;;;23.00;93.40;;;;;;5034817;28;20048;-72
2021/05/18 15:17:52;;;;;;;0.75;0.30;;;23.00;93.30;;;;;;5034452;28;20083;-70
2021/05/18 15:20:17;;;;;;;0.25;0.20;;;23.00;93.20;;;;;;5034442;28;20030;-66
2021/05/18 15:22:43;;;;;;;0.45;0.10;;;23.00;93.30;;;;;;5033873;28;20032;-67
2021/05/18 15:25:10;;;;;;;0.88;0.30;;;23.00;93.20;;;;;;5034008;28;20391;-68
2021/05/18 15:27:36;;;;;;;0.55;0.30;;;23.00;93.20;;;;;;5033997;28;20018;-69
2021/05/18 15:30:05;;;;;;;1.23;0.25;;;23.00;93.20;;;;;;5033484;28;20538;-71
2021/05/18 15:32:31;;;;;;;1.35;0.30;;;23.00;93.40;;;;;;5033985;28;20026;-65
2021/05/18 15:34:57;;;;;;;0.50;0.30;;;23.00;93.40;;;;;;5034503;28;20034;-66
2021/05/18 15:37:22;;;;;;;0.90;0.30;;;23.10;93.30;;;;;;5034227;28;20481;-67
2021/05/18 15:39:48;;;;;;;1.58;0.40;;;23.00;93.20;;;;;;5033974;28;20500;-66
2021/05/18 15:42:14;;;;;;;0.50;0.30;;;23.10;93.20;;;;;;5033908;28;20553;-66
2021/05/18 15:44:40;;;;;;;2.67;0.30;;;23.10;93.30;;;;;;5032343;28;20033;-68
2021/05/18 15:47:06;;;;;;;1.80;0.43;;;23.10;93.20;;;;;;5033929;28;20417;-66
2021/05/18 15:49:31;;;;;;;0.65;0.30;;;23.10;93.20;;;;;;5032346;28;20051;-67
2021/05/18 15:51:58;;;;;;;1.13;0.45;;;23.10;93.00;;;;;;5033698;28;20370;-67
2021/05/18 15:54:24;;;;;;;0.90;0.40;;;23.00;92.70;;;;;;5033030;28;20044;-66
2021/05/18 15:56:50;;;;;;;1.92;0.40;;;22.90;92.80;;;;;;5033659;28;20726;-66
2021/05/18 15:59:16;;;;;;;1.08;0.40;;;22.90;92.70;;;;;;5033166;28;20068;-66
2021/05/18 16:01:41;;;;;;;0.65;0.50;;;23.00;92.50;;;;;;5033665;28;20037;-70
2021/05/18 16:04:09;;;;;;;1.05;0.50;;;23.00;92.60;;;;;;5032466;28;20474;-67
2021/05/18 16:06:39;;;;;;;1.50;0.43;;;22.90;92.50;;;;;;5031957;28;20037;-66
2021/05/18 16:09:05;;;;;;;0.70;0.50;;;22.90;92.50;;;;;;5032825;28;20033;-65
2021/05/18 16:11:32;;;;;;;1.63;0.70;;;22.80;92.50;;;;;;5033185;28;20076;-66
2021/05/18 16:13:58;;;;;;;1.10;0.65;;;22.80;92.60;;;;;;5032120;28;20022;-65
2021/05/18 16:16:24;;;;;;;1.02;0.50;;;22.80;92.60;;;;;;5032076;28;20033;-66
2021/05/18 16:18:49;;;;;;;1.48;0.63;;;22.80;92.70;;;;;;5033033;28;20025;-64
2021/05/18 16:21:18;;;;;;;1.10;0.60;;;22.80;92.60;;;;;;5032396;28;20481;-64
2021/05/18 16:23:51;;;;;;;1.50;0.75;;;22.80;92.50;;;;;;5033032;28;20160;-64
2021/05/18 16:26:18;;;;;;;0.85;0.55;;;22.70;92.50;;;;;;5033085;28;20481;-66
2021/05/18 16:28:44;;;;;;;1.42;0.77;;;22.80;92.40;;;;;;5032571;28;20052;-64
2021/05/18 16:31:10;;;;;;;1.45;0.60;;;22.80;92.50;;;;;;5032795;28;20057;-67
2021/05/18 16:33:37;;;;;;;2.70;0.60;;;22.70;92.50;;;;;;5032692;28;20076;-67
2021/05/18 16:36:05;;;;;;;1.60;0.60;;;22.80;92.40;;;;;;5030570;28;20386;-68
2021/05/18 16:38:31;;;;;;;0.60;0.40;;;22.80;92.30;;;;;;5032663;28;20057;-65
2021/05/18 16:40:58;;;;;;;1.00;0.70;;;22.70;92.80;;;;;;5032400;28;20394;-67
2021/05/18 16:43:26;;;;;;;1.38;0.60;;;22.70;92.30;;;;;;5032522;28;20029;-68
2021/05/18 16:45:54;;;;;;;1.73;0.65;;;22.70;92.30;;;;;;5032275;28;20032;-65
2021/05/18 16:48:27;;;;;;;0.60;0.57;;;22.70;92.30;;;;;;5031921;28;20433;-65
2021/05/18 16:50:53;;;;;;;1.20;0.65;;;22.70;92.30;;;;;;5030784;28;20033;-64
2021/05/18 16:53:19;;;;;;;1.50;0.70;;;22.70;92.60;;;;;;5032443;28;20029;-66
2021/05/18 16:55:45;;;;;;;0.93;0.60;;;22.60;92.30;;;;;;5031840;28;20091;-64
2021/05/18 16:58:10;;;;;;;0.50;0.50;;;22.60;92.30;;;;;;5031784;28;20497;-64
2021/05/18 17:00:36;;;;;;;1.02;0.60;;;22.70;92.30;;;;;;5032246;28;20076;-68
2021/05/18 17:03:03;;;;;;;1.50;0.70;;;22.70;92.30;;;;;;5032534;28;20026;-67
2021/05/18 17:05:30;;;;;;;1.30;0.80;;;22.60;92.30;;;;;;5031115;28;20516;-68
2021/05/18 17:07:56;;;;;;;2.67;0.85;;;22.50;92.60;;;;;;5032578;28;20030;-63
2021/05/18 17:10:23;;;;;;;1.98;0.65;;;22.40;92.60;;;;;;5032423;28;20109;-66
2021/05/18 17:12:50;;;;;;;1.35;0.63;;;22.30;92.20;;;;;;5032365;28;20044;-65
2021/05/18 17:15:16;;;;;;;1.42;0.60;;;22.30;92.20;;;;;;5031399;28;20029;-66
2021/05/18 17:17:42;;;;;;;1.95;0.65;;;22.20;92.20;;;;;;5031977;28;20044;-64
2021/05/18 17:20:08;;;;;;;1.42;0.57;;;22.20;92.20;;;;;;5032030;28;20398;-64
2021/05/18 17:22:34;;;;;;;1.67;0.80;;;22.20;92.20;;;;;;5032115;28;20211;-64
2021/05/18 17:25:00;;;;;;;2.10;0.90;;;22.20;92.20;;;;;;5032141;28;20469;-66
2021/05/18 17:27:25;;;;;;;3.30;0.65;;;22.20;92.20;;;;;;5032120;28;20036;-71
2021/05/18 17:29:51;;;;;;;1.58;0.85;;;22.20;92.20;;;;;;5031715;28;20462;-68
2021/05/18 17:32:17;;;;;;;1.50;0.80;;;22.20;92.20;;;;;;5031978;28;20104;-66
2021/05/18 17:34:43;;;;;;;1.45;0.70;;;22.20;92.30;;;;;;5031442;28;20061;-65
2021/05/18 17:37:08;;;;;;;2.83;0.70;;;22.20;92.30;;;;;;5031409;28;20026;-64
2021/05/18 17:39:37;;;;;;;1.20;0.70;;;22.20;92.30;;;;;;5031986;28;20036;-65
2021/05/18 17:42:03;;;;;;;3.20;0.60;;;22.20;92.40;;;;;;5032272;28;20026;-63
2021/05/18 17:44:29;;;;;;;2.05;0.70;;;22.20;92.60;;;;;;5031972;28;20033;-64
2021/05/18 17:46:55;;;;;;;1.80;0.73;;;22.30;92.40;;;;;;5031369;28;20029;-67
2021/05/18 17:49:22;;;;;;;2.08;0.80;;;22.20;92.40;;;;;;5033474;28;20026;-74
2021/05/18 17:51:49;;;;;;;2.45;0.77;;;22.10;92.50;;;;;;5031327;28;20029;-72
2021/05/18 17:54:15;;;;;;;1.15;0.60;;;22.10;92.50;;;;;;5031967;28;20041;-74
2021/05/18 17:56:41;;;;;;;2.33;0.77;;;22.10;92.80;;;;;;5031925;28;20060;-73